sensor_id;sensor_type;location;lat;lon;timestamp;pressure;altitude;pressure_sealevel;temperature;humidity
8049;BME280;20935;42.660;23.342;2023-02-18T00:00:18;95502.63;;;2.66;89.20
8049;BME280;20935;42.660;23.342;2023-02-18T00:03:03;95507.81;;;2.96;88.91
8049;BME280;20935;42.660;23.342;2023-02-18T00:05:50;95500.38;;;2.56;91.58
8049;BME280;20935;42.660;23.342;2023-02-18T00:08:39;95492.91;;;2.91;90.97
8049;BME280;20935;42.660;23.342;2023-02-18T00:11:24;95492.06;;;2.99;92.08
8049;BME280;20935;42.660;23.342;2023-02-18T00:14:13;95482.13;;;2.96;92.48
8049;BME280;20935;42.660;23.342;2023-02-18T00:16:58;95488.34;;;3.12;90.28
8049;BME280;20935;42.660;23.342;2023-02-18T00:19:44;95471.56;;;2.96;90.45
8049;BME280;20935;42.660;23.342;2023-02-18T00:22:30;95474.91;;;3.05;91.82
8049;BME280;20935;42.660;23.342;2023-02-18T00:25:17;95467.47;;;2.99;91.10
8049;BME280;20935;42.660;23.342;2023-02-18T00:28:02;95464.47;;;2.88;91.47
8049;BME280;20935;42.660;23.342;2023-02-18T00:30:48;95455.59;;;2.72;91.72
8049;BME280;20935;42.660;23.342;2023-02-18T00:33:33;95456.34;;;2.93;92.35
8049;BME280;20935;42.660;23.342;2023-02-18T00:36:23;95449.06;;;2.36;94.13
8049;BME280;20935;42.660;23.342;2023-02-18T00:39:10;95455.69;;;2.96;92.23
8049;BME280;20935;42.660;23.342;2023-02-18T00:41:56;95448.47;;;2.52;93.79
8049;BME280;20935;42.660;23.342;2023-02-18T00:44:41;95447.00;;;2.21;96.92
8049;BME280;20935;42.660;23.342;2023-02-18T00:47:27;95455.31;;;2.53;94.46
8049;BME280;20935;42.660;23.342;2023-02-18T00:50:12;95440.34;;;2.15;97.92
8049;BME280;20935;42.660;23.342;2023-02-18T00:52:57;95441.47;;;2.68;95.59
8049;BME280;20935;42.660;23.342;2023-02-18T00:55:47;95447.75;;;2.96;92.78
8049;BME280;20935;42.660;23.342;2023-02-18T00:58:33;95447.88;;;2.67;94.57
8049;BME280;20935;42.660;23.342;2023-02-18T01:01:19;95442.28;;;2.48;95.51
8049;BME280;20935;42.660;23.342;2023-02-18T01:04:04;95435.69;;;2.74;96.10
8049;BME280;20935;42.660;23.342;2023-02-18T01:06:50;95447.63;;;2.60;96.53
8049;BME280;20935;42.660;23.342;2023-02-18T01:09:36;95433.84;;;2.33;97.61
8049;BME280;20935;42.660;23.342;2023-02-18T01:12:22;95451.38;;;2.59;97.50
8049;BME280;20935;42.660;23.342;2023-02-18T01:15:10;95443.59;;;2.42;96.91
8049;BME280;20935;42.660;23.342;2023-02-18T01:17:55;95456.50;;;2.22;99.31
8049;BME280;20935;42.660;23.342;2023-02-18T01:20:42;95439.31;;;2.49;98.33
8049;BME280;20935;42.660;23.342;2023-02-18T01:23:28;95438.19;;;2.38;98.63
8049;BME280;20935;42.660;23.342;2023-02-18T01:26:13;95436.44;;;2.01;100.00
8049;BME280;20935;42.660;23.342;2023-02-18T01:29:00;95440.94;;;2.21;100.00
8049;BME280;20935;42.660;23.342;2023-02-18T01:31:46;95433.16;;;2.24;100.00
8049;BME280;20935;42.660;23.342;2023-02-18T01:34:34;95433.78;;;2.42;98.45
8049;BME280;20935;42.660;23.342;2023-02-18T01:37:19;95437.34;;;2.25;99.46
8049;BME280;20935;42.660;23.342;2023-02-18T01:40:06;95438.78;;;2.56;97.46
8049;BME280;20935;42.660;23.342;2023-02-18T01:42:54;95455.19;;;2.28;97.93
8049;BME280;20935;42.660;23.342;2023-02-18T01:45:56;95436.72;;;2.61;96.27
8049;BME280;20935;42.660;23.342;2023-02-18T01:48:46;95449.78;;;2.25;98.64
8049;BME280;20935;42.660;23.342;2023-02-18T01:51:34;95443.47;;;2.38;96.71
8049;BME280;20935;42.660;23.342;2023-02-18T01:54:25;95449.63;;;2.01;98.72
8049;BME280;20935;42.660;23.342;2023-02-18T01:57:13;95453.88;;;1.64;100.00
8049;BME280;20935;42.660;23.342;2023-02-18T02:00:04;95462.25;;;1.95;100.00
8049;BME280;20935;42.660;23.342;2023-02-18T02:02:52;95459.34;;;1.88;100.00
8049;BME280;20935;42.660;23.342;2023-02-18T02:05:40;95461.63;;;1.98;100.00
8049;BME280;20935;42.660;23.342;2023-02-18T02:08:26;95451.47;;;1.79;100.00
8049;BME280;20935;42.660;23.342;2023-02-18T02:11:32;95443.06;;;1.86;100.00
8049;BME280;20935;42.660;23.342;2023-02-18T02:14:35;95442.94;;;2.03;100.00
8049;BME280;20935;42.660;23.342;2023-02-18T02:17:36;95435.91;;;2.07;100.00
8049;BME280;20935;42.660;23.342;2023-02-18T02:23:56;95444.06;;;2.56;100.00
8049;BME280;20935;42.660;23.342;2023-02-18T02:27:02;95451.19;;;2.02;100.00
8049;BME280;20935;42.660;23.342;2023-02-18T02:36:53;95428.69;;;1.75;100.00
8049;BME280;20935;42.660;23.342;2023-02-18T02:39:46;95430.56;;;1.95;100.00
8049;BME280;20935;42.660;23.342;2023-02-18T02:42:42;95428.63;;;2.04;100.00
8049;BME280;20935;42.660;23.342;2023-02-18T02:45:41;95420.50;;;1.88;100.00
8049;BME280;20935;42.660;23.342;2023-02-18T02:48:32;95421.94;;;1.86;100.00
8049;BME280;20935;42.660;23.342;2023-02-18T02:51:26;95411.69;;;2.05;100.00
8049;BME280;20935;42.660;23.342;2023-02-18T02:54:18;95414.66;;;2.04;100.00
8049;BME280;20935;42.660;23.342;2023-02-18T02:57:06;95422.16;;;1.72;100.00
8049;BME280;20935;42.660;23.342;2023-02-18T02:59:55;95427.31;;;1.69;100.00
8049;BME280;20935;42.660;23.342;2023-02-18T03:02:57;95428.31;;;1.56;100.00
8049;BME280;20935;42.660;23.342;2023-02-18T03:06:01;95434.41;;;1.77;100.00
8049;BME280;20935;42.660;23.342;2023-02-18T03:08:56;95439.31;;;1.87;100.00
8049;BME280;20935;42.660;23.342;2023-02-18T03:11:52;95430.38;;;2.00;100.00
8049;BME280;20935;42.660;23.342;2023-02-18T03:14:44;95435.31;;;1.81;100.00
8049;BME280;20935;42.660;23.342;2023-02-18T03:17:35;95429.69;;;1.91;100.00
8049;BME280;20935;42.660;23.342;2023-02-18T03:20:25;95424.66;;;1.98;100.00
8049;BME280;20935;42.660;23.342;2023-02-18T03:23:16;95440.84;;;1.88;100.00
8049;BME280;20935;42.660;23.342;2023-02-18T03:26:05;95445.59;;;1.74;100.00
8049;BME280;20935;42.660;23.342;2023-02-18T03:28:56;95459.66;;;1.57;100.00
8049;BME280;20935;42.660;23.342;2023-02-18T03:31:46;95470.75;;;2.01;100.00
8049;BME280;20935;42.660;23.342;2023-02-18T03:34:37;95465.91;;;1.82;100.00
8049;BME280;20935;42.660;23.342;2023-02-18T03:37:25;95476.78;;;1.51;100.00
8049;BME280;20935;42.660;23.342;2023-02-18T03:40:11;95474.69;;;1.65;100.00
8049;BME280;20935;42.660;23.342;2023-02-18T03:42:58;95472.59;;;1.50;100.00
8049;BME280;20935;42.660;23.342;2023-02-18T03:45:44;95481.63;;;1.32;100.00
8049;BME280;20935;42.660;23.342;2023-02-18T03:48:29;95504.75;;;1.81;100.00
8049;BME280;20935;42.660;23.342;2023-02-18T03:51:15;95497.38;;;1.58;100.00
8049;BME280;20935;42.660;23.342;2023-02-18T03:54:01;95497.75;;;1.77;100.00
8049;BME280;20935;42.660;23.342;2023-02-18T03:56:46;95502.59;;;1.75;100.00
8049;BME280;20935;42.660;23.342;2023-02-18T03:59:32;95484.94;;;2.17;100.00
8049;BME280;20935;42.660;23.342;2023-02-18T04:02:18;95478.91;;;2.16;100.00
8049;BME280;20935;42.660;23.342;2023-02-18T04:05:04;95483.13;;;2.09;100.00
8049;BME280;20935;42.660;23.342;2023-02-18T04:07:50;95469.75;;;2.14;100.00
8049;BME280;20935;42.660;23.342;2023-02-18T04:10:35;95476.72;;;2.18;100.00
8049;BME280;20935;42.660;23.342;2023-02-18T04:13:21;95468.44;;;1.99;100.00
8049;BME280;20935;42.660;23.342;2023-02-18T04:16:06;95463.44;;;1.77;100.00
8049;BME280;20935;42.660;23.342;2023-02-18T04:18:53;95462.53;;;1.73;100.00
8049;BME280;20935;42.660;23.342;2023-02-18T04:21:38;95456.56;;;1.84;100.00
8049;BME280;20935;42.660;23.342;2023-02-18T04:24:24;95443.00;;;1.65;100.00
8049;BME280;20935;42.660;23.342;2023-02-18T04:27:09;95451.41;;;1.88;100.00
8049;BME280;20935;42.660;23.342;2023-02-18T04:29:57;95445.97;;;1.64;100.00
8049;BME280;20935;42.660;23.342;2023-02-18T04:32:42;95454.22;;;1.62;100.00
8049;BME280;20935;42.660;23.342;2023-02-18T04:35:29;95446.94;;;1.59;100.00
8049;BME280;20935;42.660;23.342;2023-02-18T04:38:15;95443.75;;;1.95;100.00
8049;BME280;20935;42.660;23.342;2023-02-18T04:41:00;95439.81;;;1.80;100.00
8049;BME280;20935;42.660;23.342;2023-02-18T04:43:46;95448.59;;;1.93;100.00
8049;BME280;20935;42.660;23.342;2023-02-18T04:46:31;95447.81;;;1.93;100.00
8049;BME280;20935;42.660;23.342;2023-02-18T04:49:16;95460.81;;;1.77;100.00
8049;BME280;20935;42.660;23.342;2023-02-18T04:52:03;95464.56;;;1.97;100.00
8049;BME280;20935;42.660;23.342;2023-02-18T04:54:49;95454.88;;;1.80;100.00
8049;BME280;20935;42.660;23.342;2023-02-18T04:57:34;95462.44;;;1.61;100.00
8049;BME280;20935;42.660;23.342;2023-02-18T05:00:20;95459.91;;;1.73;100.00
8049;BME280;20935;42.660;23.342;2023-02-18T05:03:05;95476.38;;;1.70;100.00
8049;BME280;20935;42.660;23.342;2023-02-18T05:05:51;95474.28;;;1.84;100.00
8049;BME280;20935;42.660;23.342;2023-02-18T05:08:38;95480.13;;;2.19;100.00
8049;BME280;20935;42.660;23.342;2023-02-18T05:11:23;95479.16;;;2.03;100.00
8049;BME280;20935;42.660;23.342;2023-02-18T05:14:08;95487.44;;;1.93;100.00
8049;BME280;20935;42.660;23.342;2023-02-18T05:16:54;95474.59;;;1.82;100.00
8049;BME280;20935;42.660;23.342;2023-02-18T05:19:39;95467.88;;;2.14;100.00
8049;BME280;20935;42.660;23.342;2023-02-18T05:22:25;95472.25;;;2.52;100.00
8049;BME280;20935;42.660;23.342;2023-02-18T05:25:11;95466.06;;;2.68;98.67
8049;BME280;20935;42.660;23.342;2023-02-18T05:27:56;95462.56;;;2.76;97.69
8049;BME280;20935;42.660;23.342;2023-02-18T05:30:42;95452.22;;;2.30;100.00
8049;BME280;20935;42.660;23.342;2023-02-18T05:33:28;95456.53;;;2.14;100.00
8049;BME280;20935;42.660;23.342;2023-02-18T05:36:13;95452.25;;;2.63;100.00
8049;BME280;20935;42.660;23.342;2023-02-18T05:38:58;95466.53;;;2.50;100.00
8049;BME280;20935;42.660;23.342;2023-02-18T05:41:45;95451.25;;;2.14;100.00
8049;BME280;20935;42.660;23.342;2023-02-18T05:44:30;95451.00;;;2.07;100.00
8049;BME280;20935;42.660;23.342;2023-02-18T05:47:16;95453.31;;;2.29;100.00
8049;BME280;20935;42.660;23.342;2023-02-18T05:50:02;95462.53;;;2.44;100.00
8049;BME280;20935;42.660;23.342;2023-02-18T05:52:47;95460.00;;;2.47;100.00
8049;BME280;20935;42.660;23.342;2023-02-18T05:55:33;95470.34;;;2.94;99.96
8049;BME280;20935;42.660;23.342;2023-02-18T05:58:23;95477.38;;;2.90;98.53
8049;BME280;20935;42.660;23.342;2023-02-18T06:01:08;95478.13;;;2.78;98.49
8049;BME280;20935;42.660;23.342;2023-02-18T06:03:54;95483.53;;;3.26;97.19
8049;BME280;20935;42.660;23.342;2023-02-18T06:06:40;95486.22;;;3.51;94.60
8049;BME280;20935;42.660;23.342;2023-02-18T06:09:25;95482.59;;;3.67;93.84
8049;BME280;20935;42.660;23.342;2023-02-18T06:12:11;95479.72;;;3.72;91.82
8049;BME280;20935;42.660;23.342;2023-02-18T06:14:57;95475.75;;;3.54;93.66
8049;BME280;20935;42.660;23.342;2023-02-18T06:17:43;95478.38;;;3.30;93.81
8049;BME280;20935;42.660;23.342;2023-02-18T06:20:28;95482.94;;;3.54;92.60
8049;BME280;20935;42.660;23.342;2023-02-18T06:23:14;95470.78;;;3.89;89.25
8049;BME280;20935;42.660;23.342;2023-02-18T06:26:00;95488.66;;;3.92;88.80
8049;BME280;20935;42.660;23.342;2023-02-18T06:28:45;95480.09;;;4.35;87.97
8049;BME280;20935;42.660;23.342;2023-02-18T06:31:32;95473.97;;;3.83;89.63
8049;BME280;20935;42.660;23.342;2023-02-18T06:34:17;95467.47;;;4.04;90.34
8049;BME280;20935;42.660;23.342;2023-02-18T06:37:02;95454.59;;;4.31;90.03
8049;BME280;20935;42.660;23.342;2023-02-18T06:39:48;95460.16;;;4.65;84.40
8049;BME280;20935;42.660;23.342;2023-02-18T06:42:33;95462.41;;;4.51;86.12
8049;BME280;20935;42.660;23.342;2023-02-18T06:45:19;95465.63;;;4.45;85.61
8049;BME280;20935;42.660;23.342;2023-02-18T06:48:06;95469.63;;;4.66;85.22
8049;BME280;20935;42.660;23.342;2023-02-18T06:50:52;95471.75;;;4.61;84.68
8049;BME280;20935;42.660;23.342;2023-02-18T06:53:38;95465.50;;;4.81;82.32
8049;BME280;20935;42.660;23.342;2023-02-18T06:56:26;95465.53;;;4.97;82.07
8049;BME280;20935;42.660;23.342;2023-02-18T06:59:12;95465.81;;;5.07;82.98
8049;BME280;20935;42.660;23.342;2023-02-18T07:01:57;95466.00;;;5.30;78.53
8049;BME280;20935;42.660;23.342;2023-02-18T07:04:44;95468.59;;;5.27;79.84
8049;BME280;20935;42.660;23.342;2023-02-18T07:07:29;95473.41;;;5.68;80.19
8049;BME280;20935;42.660;23.342;2023-02-18T07:10:15;95461.59;;;5.81;75.22
8049;BME280;20935;42.660;23.342;2023-02-18T07:13:00;95468.84;;;6.16;71.66
8049;BME280;20935;42.660;23.342;2023-02-18T07:15:46;95467.06;;;6.04;72.18
8049;BME280;20935;42.660;23.342;2023-02-18T07:18:31;95462.91;;;6.22;71.76
8049;BME280;20935;42.660;23.342;2023-02-18T07:21:18;95448.38;;;6.35;70.49
8049;BME280;20935;42.660;23.342;2023-02-18T07:24:04;95464.00;;;6.37;68.21
8049;BME280;20935;42.660;23.342;2023-02-18T07:26:50;95453.63;;;6.32;67.44
8049;BME280;20935;42.660;23.342;2023-02-18T07:29:38;95455.84;;;6.49;65.98
8049;BME280;20935;42.660;23.342;2023-02-18T07:32:23;95449.03;;;6.48;65.89
8049;BME280;20935;42.660;23.342;2023-02-18T07:35:09;95458.84;;;7.05;64.40
8049;BME280;20935;42.660;23.342;2023-02-18T07:37:57;95462.19;;;6.98;62.75
8049;BME280;20935;42.660;23.342;2023-02-18T07:40:44;95473.31;;;6.66;63.13
8049;BME280;20935;42.660;23.342;2023-02-18T07:43:29;95479.22;;;6.21;63.88
8049;BME280;20935;42.660;23.342;2023-02-18T07:46:15;95470.50;;;6.39;63.48
8049;BME280;20935;42.660;23.342;2023-02-18T07:49:00;95487.22;;;7.17;61.12
8049;BME280;20935;42.660;23.342;2023-02-18T07:51:46;95486.19;;;7.02;61.04
8049;BME280;20935;42.660;23.342;2023-02-18T07:54:36;95486.63;;;7.69;59.27
8049;BME280;20935;42.660;23.342;2023-02-18T07:57:21;95485.78;;;8.10;57.24
8049;BME280;20935;42.660;23.342;2023-02-18T08:00:07;95486.94;;;8.13;56.86
8049;BME280;20935;42.660;23.342;2023-02-18T08:02:53;95481.00;;;8.23;56.38
8049;BME280;20935;42.660;23.342;2023-02-18T08:05:39;95461.25;;;8.27;56.36
8049;BME280;20935;42.660;23.342;2023-02-18T08:08:25;95477.34;;;8.61;56.51
8049;BME280;20935;42.660;23.342;2023-02-18T08:11:13;95480.34;;;9.19;54.03
8049;BME280;20935;42.660;23.342;2023-02-18T08:13:58;95477.88;;;9.03;53.41
8049;BME280;20935;42.660;23.342;2023-02-18T08:16:44;95469.22;;;9.13;52.88
8049;BME280;20935;42.660;23.342;2023-02-18T08:19:30;95466.56;;;9.17;52.46
8049;BME280;20935;42.660;23.342;2023-02-18T08:22:15;95455.56;;;9.62;51.37
8049;BME280;20935;42.660;23.342;2023-02-18T08:25:01;95449.44;;;10.13;50.80
8049;BME280;20935;42.660;23.342;2023-02-18T08:27:47;95461.44;;;9.38;51.90
8049;BME280;20935;42.660;23.342;2023-02-18T08:30:33;95452.31;;;9.39;51.82
8049;BME280;20935;42.660;23.342;2023-02-18T08:33:19;95458.72;;;9.31;52.48
8049;BME280;20935;42.660;23.342;2023-02-18T08:36:06;95452.91;;;9.66;51.68
8049;BME280;20935;42.660;23.342;2023-02-18T08:38:53;95463.34;;;9.78;51.33
8049;BME280;20935;42.660;23.342;2023-02-18T08:41:38;95456.06;;;9.75;51.50
8049;BME280;20935;42.660;23.342;2023-02-18T08:44:28;95448.31;;;9.63;51.57
8049;BME280;20935;42.660;23.342;2023-02-18T08:47:14;95431.56;;;9.29;51.50
8049;BME280;20935;42.660;23.342;2023-02-18T08:49:59;95449.16;;;9.70;51.59
8049;BME280;20935;42.660;23.342;2023-02-18T08:52:45;95453.94;;;9.98;50.36
8049;BME280;20935;42.660;23.342;2023-02-18T08:55:31;95462.91;;;9.72;51.01
8049;BME280;20935;42.660;23.342;2023-02-18T08:58:17;95460.13;;;10.06;50.49
8049;BME280;20935;42.660;23.342;2023-02-18T09:01:06;95461.84;;;9.40;51.38
8049;BME280;20935;42.660;23.342;2023-02-18T09:18:20;95460.03;;;10.46;49.16
8049;BME280;20935;42.660;23.342;2023-02-18T09:21:07;95455.19;;;10.73;49.85
8049;BME280;20935;42.660;23.342;2023-02-18T09:23:53;95460.66;;;10.98;49.30
8049;BME280;20935;42.660;23.342;2023-02-18T09:26:39;95456.16;;;11.30;48.30
8049;BME280;20935;42.660;23.342;2023-02-18T09:29:24;95452.28;;;11.31;47.85
8049;BME280;20935;42.660;23.342;2023-02-18T09:32:10;95437.47;;;11.90;47.00
8049;BME280;20935;42.660;23.342;2023-02-18T09:34:57;95430.50;;;12.28;45.82
8049;BME280;20935;42.660;23.342;2023-02-18T09:37:42;95425.91;;;12.32;45.58
8049;BME280;20935;42.660;23.342;2023-02-18T09:40:30;95416.34;;;12.13;46.25
8049;BME280;20935;42.660;23.342;2023-02-18T09:43:23;95417.84;;;12.32;45.04
8049;BME280;20935;42.660;23.342;2023-02-18T09:46:18;95418.63;;;12.22;45.29
8049;BME280;20935;42.660;23.342;2023-02-18T09:49:10;95427.16;;;13.14;44.28
8049;BME280;20935;42.660;23.342;2023-02-18T09:52:04;95421.28;;;13.37;43.91
8049;BME280;20935;42.660;23.342;2023-02-18T09:54:51;95422.94;;;13.13;44.09
8049;BME280;20935;42.660;23.342;2023-02-18T09:57:40;95422.03;;;12.40;44.77
8049;BME280;20935;42.660;23.342;2023-02-18T10:00:30;95420.94;;;12.13;45.56
8049;BME280;20935;42.660;23.342;2023-02-18T10:03:18;95417.50;;;12.09;45.85
8049;BME280;20935;42.660;23.342;2023-02-18T10:06:09;95408.56;;;12.54;44.88
8049;BME280;20935;42.660;23.342;2023-02-18T10:09:00;95411.72;;;13.29;44.29
8049;BME280;20935;42.660;23.342;2023-02-18T10:11:49;95413.22;;;13.30;43.89
8049;BME280;20935;42.660;23.342;2023-02-18T10:14:35;95393.66;;;14.22;43.21
8049;BME280;20935;42.660;23.342;2023-02-18T10:17:22;95395.34;;;14.46;41.88
8049;BME280;20935;42.660;23.342;2023-02-18T10:20:14;95397.41;;;14.35;42.30
8049;BME280;20935;42.660;23.342;2023-02-18T10:23:05;95406.22;;;14.39;41.73
8049;BME280;20935;42.660;23.342;2023-02-18T10:25:52;95404.69;;;14.72;41.61
8049;BME280;20935;42.660;23.342;2023-02-18T10:28:38;95391.75;;;14.60;41.03
8049;BME280;20935;42.660;23.342;2023-02-18T10:31:28;95393.38;;;14.50;41.24
8049;BME280;20935;42.660;23.342;2023-02-18T10:34:22;95385.88;;;14.65;41.03
8049;BME280;20935;42.660;23.342;2023-02-18T10:37:23;95389.38;;;14.28;41.15
8049;BME280;20935;42.660;23.342;2023-02-18T10:40:18;95387.44;;;14.25;41.69
8049;BME280;20935;42.660;23.342;2023-02-18T10:43:15;95375.34;;;14.78;41.12
8049;BME280;20935;42.660;23.342;2023-02-18T10:46:11;95369.94;;;15.35;39.92
8049;BME280;20935;42.660;23.342;2023-02-18T10:49:11;95366.50;;;15.84;39.08
8049;BME280;20935;42.660;23.342;2023-02-18T10:52:01;95351.16;;;16.01;38.78
8049;BME280;20935;42.660;23.342;2023-02-18T10:54:50;95332.84;;;16.12;38.71
8049;BME280;20935;42.660;23.342;2023-02-18T10:57:45;95346.94;;;15.27;39.49
8049;BME280;20935;42.660;23.342;2023-02-18T11:00:37;95341.19;;;15.98;38.50
8049;BME280;20935;42.660;23.342;2023-02-18T11:03:24;95341.31;;;15.91;38.28
8049;BME280;20935;42.660;23.342;2023-02-18T11:06:21;95332.38;;;14.94;39.27
8049;BME280;20935;42.660;23.342;2023-02-18T11:09:26;95331.91;;;14.99;39.10
8049;BME280;20935;42.660;23.342;2023-02-18T11:12:15;95318.59;;;15.15;38.65
8049;BME280;20935;42.660;23.342;2023-02-18T11:15:15;95320.88;;;15.90;38.40
8049;BME280;20935;42.660;23.342;2023-02-18T11:18:13;95310.56;;;16.05;37.78
8049;BME280;20935;42.660;23.342;2023-02-18T11:21:20;95310.19;;;15.60;38.25
8049;BME280;20935;42.660;23.342;2023-02-18T11:24:14;95293.09;;;16.09;37.69
8049;BME280;20935;42.660;23.342;2023-02-18T11:27:00;95293.78;;;15.47;37.60
8049;BME280;20935;42.660;23.342;2023-02-18T11:29:47;95290.81;;;15.65;37.59
8049;BME280;20935;42.660;23.342;2023-02-18T11:32:35;95276.38;;;15.75;37.08
8049;BME280;20935;42.660;23.342;2023-02-18T11:35:24;95281.78;;;16.54;36.77
8049;BME280;20935;42.660;23.342;2023-02-18T11:38:19;95265.88;;;16.39;36.14
8049;BME280;20935;42.660;23.342;2023-02-18T11:41:08;95267.44;;;16.76;35.58
8049;BME280;20935;42.660;23.342;2023-02-18T11:43:55;95252.81;;;16.74;34.71
8049;BME280;20935;42.660;23.342;2023-02-18T11:46:55;95259.19;;;16.83;34.84
8049;BME280;20935;42.660;23.342;2023-02-18T11:49:42;95247.25;;;17.29;34.44
8049;BME280;20935;42.660;23.342;2023-02-18T11:52:33;95248.44;;;17.61;33.36
8049;BME280;20935;42.660;23.342;2023-02-18T11:55:21;95241.59;;;16.92;33.83
8049;BME280;20935;42.660;23.342;2023-02-18T11:58:09;95231.09;;;17.26;33.90
8049;BME280;20935;42.660;23.342;2023-02-18T12:00:59;95219.00;;;17.14;33.80
8049;BME280;20935;42.660;23.342;2023-02-18T12:03:51;95214.00;;;16.97;34.22
8049;BME280;20935;42.660;23.342;2023-02-18T12:06:43;95210.66;;;17.70;34.42
8049;BME280;20935;42.660;23.342;2023-02-18T12:09:35;95210.94;;;18.17;32.96
8049;BME280;20935;42.660;23.342;2023-02-18T12:12:26;95195.91;;;18.00;32.73
8049;BME280;20935;42.660;23.342;2023-02-18T12:15:16;95193.50;;;18.30;32.09
8049;BME280;20935;42.660;23.342;2023-02-18T12:18:16;95199.03;;;18.27;31.56
8049;BME280;20935;42.660;23.342;2023-02-18T12:21:19;95194.22;;;18.06;31.76
8049;BME280;20935;42.660;23.342;2023-02-18T12:24:16;95203.31;;;17.54;32.57
8049;BME280;20935;42.660;23.342;2023-02-18T12:27:12;95199.47;;;17.39;33.54
8049;BME280;20935;42.660;23.342;2023-02-18T12:30:20;95209.44;;;17.26;34.36
8049;BME280;20935;42.660;23.342;2023-02-18T12:33:17;95200.78;;;17.47;34.95
8049;BME280;20935;42.660;23.342;2023-02-18T12:36:15;95189.19;;;17.47;35.23
8049;BME280;20935;42.660;23.342;2023-02-18T12:39:10;95185.09;;;17.26;35.74
8049;BME280;20935;42.660;23.342;2023-02-18T12:42:23;95176.44;;;17.31;35.65
8049;BME280;20935;42.660;23.342;2023-02-18T12:45:30;95168.63;;;17.49;35.34
8049;BME280;20935;42.660;23.342;2023-02-18T12:48:37;95160.53;;;17.78;35.08
8049;BME280;20935;42.660;23.342;2023-02-18T12:51:34;95156.69;;;17.47;35.28
8049;BME280;20935;42.660;23.342;2023-02-18T12:54:35;95169.38;;;17.66;33.90
8049;BME280;20935;42.660;23.342;2023-02-18T12:57:35;95153.69;;;17.73;33.52
8049;BME280;20935;42.660;23.342;2023-02-18T13:00:50;95161.56;;;17.68;33.80
8049;BME280;20935;42.660;23.342;2023-02-18T13:10:41;95176.25;;;17.83;33.23
8049;BME280;20935;42.660;23.342;2023-02-18T13:13:33;95173.97;;;17.81;33.13
8049;BME280;20935;42.660;23.342;2023-02-18T13:16:20;95163.59;;;17.64;33.54
8049;BME280;20935;42.660;23.342;2023-02-18T13:19:15;95159.16;;;17.57;33.52
8049;BME280;20935;42.660;23.342;2023-02-18T13:22:07;95178.47;;;17.72;33.72
8049;BME280;20935;42.660;23.342;2023-02-18T13:24:56;95152.28;;;17.53;33.54
8049;BME280;20935;42.660;23.342;2023-02-18T13:27:47;95157.25;;;17.25;33.99
8049;BME280;20935;42.660;23.342;2023-02-18T13:30:42;95159.09;;;17.28;33.96
8049;BME280;20935;42.660;23.342;2023-02-18T13:33:36;95164.53;;;17.12;34.45
8049;BME280;20935;42.660;23.342;2023-02-18T13:36:35;95151.53;;;17.07;34.34
8049;BME280;20935;42.660;23.342;2023-02-18T13:39:26;95159.88;;;16.97;35.01
8049;BME280;20935;42.660;23.342;2023-02-18T13:42:25;95166.56;;;17.08;35.00
8049;BME280;20935;42.660;23.342;2023-02-18T13:45:29;95176.31;;;16.89;36.21
8049;BME280;20935;42.660;23.342;2023-02-18T13:48:28;95162.63;;;16.44;37.11
8049;BME280;20935;42.660;23.342;2023-02-18T13:51:15;95166.00;;;16.49;37.42
8049;BME280;20935;42.660;23.342;2023-02-18T13:54:07;95161.53;;;16.42;37.76
8049;BME280;20935;42.660;23.342;2023-02-18T13:57:01;95174.97;;;16.45;37.61
8049;BME280;20935;42.660;23.342;2023-02-18T13:59:49;95154.47;;;16.28;38.16
8049;BME280;20935;42.660;23.342;2023-02-18T14:02:55;95155.13;;;16.36;38.22
8049;BME280;20935;42.660;23.342;2023-02-18T14:05:42;95160.81;;;16.22;38.43
8049;BME280;20935;42.660;23.342;2023-02-18T14:08:33;95160.34;;;16.07;38.56
8049;BME280;20935;42.660;23.342;2023-02-18T14:14:47;95152.69;;;15.66;39.35
8049;BME280;20935;42.660;23.342;2023-02-18T14:17:43;95154.22;;;15.67;39.42
8049;BME280;20935;42.660;23.342;2023-02-18T14:20:47;95170.66;;;15.53;39.58
8049;BME280;20935;42.660;23.342;2023-02-18T14:23:43;95161.22;;;15.41;39.51
8049;BME280;20935;42.660;23.342;2023-02-18T14:26:44;95163.13;;;15.44;39.57
8049;BME280;20935;42.660;23.342;2023-02-18T14:29:30;95155.84;;;15.18;39.89
8049;BME280;20935;42.660;23.342;2023-02-18T14:32:19;95170.69;;;15.07;40.21
8049;BME280;20935;42.660;23.342;2023-02-18T14:35:14;95170.41;;;15.24;40.04
8049;BME280;20935;42.660;23.342;2023-02-18T14:38:33;95162.66;;;15.26;40.04
8049;BME280;20935;42.660;23.342;2023-02-18T14:41:31;95172.16;;;15.34;39.90
8049;BME280;20935;42.660;23.342;2023-02-18T14:44:35;95166.06;;;15.30;40.25
8049;BME280;20935;42.660;23.342;2023-02-18T14:47:29;95161.13;;;15.25;40.19
8049;BME280;20935;42.660;23.342;2023-02-18T14:50:19;95166.84;;;15.08;40.37
8049;BME280;20935;42.660;23.342;2023-02-18T14:53:06;95150.41;;;15.22;40.53
8049;BME280;20935;42.660;23.342;2023-02-18T14:55:58;95164.72;;;15.19;40.77
8049;BME280;20935;42.660;23.342;2023-02-18T14:58:47;95150.81;;;15.20;40.43
8049;BME280;20935;42.660;23.342;2023-02-18T15:01:35;95154.72;;;14.96;41.17
8049;BME280;20935;42.660;23.342;2023-02-18T15:04:23;95145.47;;;14.93;41.18
8049;BME280;20935;42.660;23.342;2023-02-18T15:07:08;95142.56;;;14.84;41.23
8049;BME280;20935;42.660;23.342;2023-02-18T15:09:55;95154.88;;;14.85;41.43
8049;BME280;20935;42.660;23.342;2023-02-18T15:12:42;95162.69;;;14.80;41.40
8049;BME280;20935;42.660;23.342;2023-02-18T15:15:28;95159.84;;;14.64;41.80
8049;BME280;20935;42.660;23.342;2023-02-18T15:18:19;95150.22;;;14.63;41.79
8049;BME280;20935;42.660;23.342;2023-02-18T15:21:07;95156.78;;;14.62;42.03
8049;BME280;20935;42.660;23.342;2023-02-18T15:23:52;95139.13;;;14.57;41.85
8049;BME280;20935;42.660;23.342;2023-02-18T15:26:41;95139.03;;;14.37;42.26
8049;BME280;20935;42.660;23.342;2023-02-18T15:29:32;95137.97;;;14.31;42.54
8049;BME280;20935;42.660;23.342;2023-02-18T15:32:23;95141.22;;;14.19;42.81
8049;BME280;20935;42.660;23.342;2023-02-18T15:35:14;95137.81;;;14.15;42.95
8049;BME280;20935;42.660;23.342;2023-02-18T15:38:00;95132.97;;;14.03;43.28